createdAt,value
2018-02-09T00:00:18.717Z,84.61
2018-02-09T00:01:18.731Z,84.27
2018-02-09T00:02:18.746Z,84.51
2018-02-09T00:03:19.012Z,84.65
2018-02-09T00:04:18.771Z,84.27
2018-02-09T00:05:19.037Z,85.13
2018-02-09T00:06:18.800Z,84.94
2018-02-09T00:07:18.814Z,83.51
2018-02-09T00:39:32.038Z,85.5
2018-02-09T00:40:13.317Z,84.84
2018-02-09T00:41:13.334Z,84.55
2018-02-09T00:42:13.346Z,84.84
2018-02-09T00:43:13.105Z,84.36
2018-02-09T00:44:13.372Z,83.8
2018-02-09T00:45:13.134Z,84.08
2018-02-09T00:46:13.397Z,84.65
2018-02-09T00:47:13.413Z,84.46
2018-02-09T00:48:13.427Z,84.55
2018-02-09T00:49:13.441Z,84.08
2018-02-09T00:50:13.205Z,85.13
2018-02-09T00:51:13.476Z,83.51
2018-02-09T00:52:13.232Z,82.66
2018-02-09T00:53:13.496Z,82.47
2018-02-09T00:54:13.511Z,83.18
2018-02-09T00:55:13.522Z,83.85
2018-02-09T00:56:13.551Z,84.61
2018-02-09T00:57:13.552Z,84.36
2018-02-09T00:58:13.564Z,83.51
2018-02-09T00:59:13.377Z,84.65
2018-02-09T01:00:13.591Z,84.08
2018-02-09T01:01:13.353Z,83.8
2018-02-09T01:02:13.620Z,83.89
2018-02-09T01:03:13.629Z,83.61
2018-02-09T01:04:13.391Z,83.61
2018-02-09T01:05:13.407Z,84.65
2018-02-09T01:06:13.671Z,84.17
2018-02-09T01:07:13.688Z,84.65
2018-02-09T01:08:13.702Z,84.27
2018-02-09T01:09:13.824Z,85.03
2018-02-09T01:10:13.730Z,84.08
2018-02-09T01:11:13.741Z,84.27
2018-02-09T01:12:13.754Z,85.03
2018-02-09T01:13:13.517Z,84.36
2018-02-09T01:14:13.831Z,85.13
2018-02-09T01:15:13.555Z,85.13
2018-02-09T01:16:13.807Z,83.61
2018-02-09T01:17:13.569Z,83.51
2018-02-09T01:18:13.586Z,84.17
2018-02-09T01:19:13.852Z,83.7
2018-02-09T01:20:13.868Z,84.46
2018-02-09T01:21:13.626Z,85.31
2018-02-09T01:22:13.641Z,85.31
2018-02-09T01:23:13.903Z,84.46
2018-02-09T01:24:13.921Z,83.42
2018-02-09T01:25:13.930Z,82.75
2018-02-09T01:26:13.694Z,82.56
2018-02-09T01:27:13.958Z,82.62
2018-02-09T01:28:13.724Z,82.71
2018-02-09T01:29:13.785Z,82.81
2018-02-09T01:30:13.998Z,83.28
2018-02-09T01:31:13.762Z,83
2018-02-09T01:32:13.774Z,82.52
2018-02-09T01:33:13.792Z,82.43
2018-02-09T01:34:13.806Z,82.81
2018-02-09T01:35:13.816Z,83.09
2018-02-09T01:36:13.831Z,83.28
2018-02-09T01:37:13.845Z,82.52
2018-02-09T01:38:14.111Z,84.04
2018-02-09T01:39:13.870Z,83.13
2018-02-09T01:40:14.138Z,82.52
2018-02-09T01:41:13.899Z,83
2018-02-09T01:42:14.168Z,83
2018-02-09T01:43:14.179Z,82.9
2018-02-09T01:44:13.940Z,82.24
2018-02-09T01:45:14.018Z,82.9
2018-02-09T01:46:14.217Z,83.09
2018-02-09T01:47:14.237Z,83.75
2018-02-09T01:48:14.244Z,83.94
2018-02-09T01:49:14.258Z,82.9
2018-02-09T01:50:14.273Z,83.09
2018-02-09T01:51:14.037Z,83.28
2018-02-09T01:52:14.298Z,83.28
2018-02-09T01:53:14.315Z,82.9
2018-02-09T01:54:14.076Z,82.81
2018-02-09T01:55:14.091Z,82.05
2018-02-09T01:56:14.355Z,82.52
2018-02-09T01:57:14.370Z,83.18
2018-02-09T01:58:14.381Z,83.18
2018-02-09T01:59:14.397Z,82.71
2018-02-09T02:00:14.461Z,82.71
2018-02-09T02:01:14.422Z,82.71
2018-02-09T02:02:14.438Z,82.71
2018-02-09T02:03:14.449Z,82.62
2018-02-09T02:04:14.212Z,82.9
2018-02-09T02:05:14.226Z,82.81
2018-02-09T02:06:14.239Z,83.09
2018-02-09T02:07:14.506Z,84.23
2018-02-09T02:08:14.267Z,83.37
2018-02-09T02:09:14.280Z,83.37
2018-02-09T02:10:14.543Z,83.75
2018-02-09T02:11:14.307Z,83.09
2018-02-09T02:12:14.319Z,82.43
2018-02-09T02:13:14.336Z,82.62
2018-02-09T02:14:14.599Z,82.33
2018-02-09T02:15:14.663Z,82.14
2018-02-09T02:16:14.631Z,81.86
2018-02-09T02:17:14.388Z,82.14
2018-02-09T02:18:14.654Z,82.43
2018-02-09T02:19:14.415Z,82.52
2018-02-09T02:20:14.527Z,83.09
2018-02-09T02:21:14.702Z,84.23
2018-02-09T02:22:14.711Z,84.23
2018-02-09T02:23:14.723Z,83.18
2018-02-09T02:24:14.733Z,83
2018-02-09T02:25:14.496Z,82.71
2018-02-09T02:26:14.511Z,82.52
2018-02-09T02:27:14.773Z,83
2018-02-09T02:28:14.567Z,83.09
2018-02-09T02:29:14.804Z,83
2018-02-09T02:30:14.614Z,82.9
2018-02-09T02:31:14.579Z,83.09
2018-02-09T02:32:14.590Z,82.24
2018-02-09T02:33:14.605Z,82.14
2018-02-09T02:34:14.615Z,82.24
2018-02-09T02:35:14.881Z,82.05
2018-02-09T02:36:14.642Z,82.14
2018-02-09T02:37:14.910Z,82.14
2018-02-09T02:38:14.925Z,83.37
2018-02-09T02:39:14.937Z,81.95
2018-02-09T02:40:14.948Z,81.57
2018-02-09T02:41:14.712Z,81.1
2018-02-09T02:42:14.976Z,81.76
2018-02-09T02:43:14.993Z,82.05
2018-02-09T02:44:15.016Z,81.67
2018-02-09T02:45:15.067Z,82.33
2018-02-09T02:46:15.036Z,82.33
2018-02-09T02:47:15.049Z,82.24
2018-02-09T02:48:15.063Z,82.33
2018-02-09T02:49:15.072Z,81.86
2018-02-09T02:50:15.086Z,82.62
2018-02-09T02:51:14.848Z,83
2018-02-09T02:52:15.109Z,82.52
2018-02-09T02:53:14.873Z,82.71
2018-02-09T02:54:14.894Z,82.33
2018-02-09T02:55:15.150Z,83.66
2018-02-09T02:56:15.165Z,83
2018-02-09T02:57:14.925Z,82.24
2018-02-09T02:58:15.200Z,81.95
2018-02-09T02:59:14.955Z,82.05
2018-02-09T03:00:15.016Z,81.86
2018-02-09T03:01:15.234Z,81.95
2018-02-09T03:02:14.993Z,82.62
2018-02-09T03:03:15.010Z,82.24
2018-02-09T03:04:15.022Z,82.33
2018-02-09T03:05:15.033Z,82.24
2018-02-09T03:06:15.049Z,82.85
2018-02-09T03:07:15.310Z,82.85
2018-02-09T03:08:15.075Z,82.81
2018-02-09T03:09:15.337Z,81.71
2018-02-09T03:10:15.101Z,81.33
2018-02-09T03:11:15.120Z,82.09
2018-02-09T03:12:15.129Z,82.85
2018-02-09T03:13:15.140Z,82.56
2018-02-09T03:14:15.152Z,82.28
2018-02-09T03:15:15.215Z,82.56
2018-02-09T03:16:15.434Z,82.09
2018-02-09T03:17:15.196Z,82.37
2018-02-09T03:18:15.215Z,80.95
2018-02-09T03:19:15.477Z,80.95
2018-02-09T03:20:15.240Z,82.18
2018-02-09T03:21:15.508Z,81.24
2018-02-09T03:22:15.517Z,80.29
2018-02-09T03:23:15.531Z,80.67
2018-02-09T03:24:15.338Z,79.82
2018-02-09T03:25:15.559Z,78.3
2018-02-09T03:26:15.318Z,78.54
2018-02-09T03:27:15.585Z,79.58
2018-02-09T03:28:15.597Z,79.96
2018-02-09T03:29:15.612Z,80.25
2018-02-09T03:30:15.687Z,79.77
2018-02-09T03:31:15.386Z,80.44
2018-02-09T03:32:15.652Z,80.72
2018-02-09T03:33:15.669Z,80.34
2018-02-09T03:34:15.682Z,80.53
2018-02-09T03:35:15.694Z,81.95
2018-02-09T03:36:15.503Z,82.81
2018-02-09T03:37:15.468Z,83
2018-02-09T03:38:15.732Z,82.14
2018-02-09T03:39:15.747Z,81.29
2018-02-09T03:40:15.763Z,81.29
2018-02-09T03:41:15.520Z,81.29
2018-02-09T03:42:15.533Z,80.82
2018-02-09T03:43:15.547Z,79.21
2018-02-09T03:44:15.811Z,79.21
2018-02-09T03:45:15.725Z,79.3
2018-02-09T03:46:15.840Z,79.39
2018-02-09T03:47:15.608Z,80.06
2018-02-09T03:48:15.869Z,80.34
2018-02-09T03:49:15.883Z,80.15
2018-02-09T03:50:15.895Z,80.72
2018-02-09T03:51:15.916Z,80.72
2018-02-09T03:52:15.916Z,81.29
2018-02-09T03:53:15.680Z,80.91
2018-02-09T03:54:15.692Z,79.39
2018-02-09T03:55:15.705Z,79.77
2018-02-09T03:56:15.979Z,79.96
2018-02-09T03:57:15.735Z,80.34
2018-02-09T03:58:15.746Z,81.57
2018-02-09T03:59:15.759Z,82.43
2018-02-09T04:00:16.026Z,82.52
2018-02-09T04:01:16.040Z,83.28
2018-02-09T04:02:15.847Z,83.56
2018-02-09T04:03:16.067Z,83.66
2018-02-09T04:04:15.825Z,83
2018-02-09T04:05:15.836Z,83.28
2018-02-09T04:06:15.851Z,83.66
2018-02-09T04:07:16.115Z,83.66
2018-02-09T04:08:15.878Z,83.66
2018-02-09T04:09:16.142Z,83.56
2018-02-09T04:10:16.162Z,83.85
2018-02-09T04:11:16.178Z,84.75
2018-02-09T04:12:15.930Z,85.32
2018-02-09T04:13:16.202Z,85.8
2018-02-09T04:14:16.206Z,85.8
2018-02-09T04:15:15.979Z,85.8
2018-02-09T04:16:16.232Z,85.8
2018-02-09T04:17:16.296Z,85.7
2018-02-09T04:18:16.260Z,85.32
2018-02-09T04:19:16.270Z,85.42
2018-02-09T04:20:16.030Z,85.8
2018-02-09T04:21:16.299Z,85.7
2018-02-09T04:22:16.313Z,85.89
2018-02-09T04:23:16.332Z,86.12
2018-02-09T04:24:16.334Z,86.31
2018-02-09T04:25:16.346Z,85.74
2018-02-09T04:26:16.361Z,85.93
2018-02-09T04:27:16.120Z,84.89
2018-02-09T04:28:16.386Z,84.8
2018-02-09T04:29:16.400Z,85.17
2018-02-09T04:30:16.413Z,84.7
2018-02-09T04:31:16.423Z,84.89
2018-02-09T04:32:16.485Z,85.08
2018-02-09T04:33:16.199Z,84.7
2018-02-09T04:34:16.462Z,84.99
2018-02-09T04:35:16.475Z,84.99
2018-02-09T04:36:16.488Z,84.89
2018-02-09T04:37:16.498Z,84.42
2018-02-09T04:38:16.516Z,84.13
2018-02-09T04:39:16.281Z,84.13
2018-02-09T04:40:16.541Z,83.85
2018-02-09T04:41:16.305Z,83.94
2018-02-09T04:42:16.574Z,83.37
2018-02-09T04:43:16.580Z,84.42
2018-02-09T04:44:16.342Z,83.66
2018-02-09T04:45:16.607Z,83.66
2018-02-09T04:46:16.624Z,83.56
2018-02-09T04:47:16.430Z,84.42
2018-02-09T04:48:16.644Z,84.42
2018-02-09T04:49:16.406Z,83.85
2018-02-09T04:50:16.418Z,83.75
2018-02-09T04:51:16.433Z,83.85
2018-02-09T04:52:16.448Z,84.42
2018-02-09T04:53:16.457Z,84.42
2018-02-09T04:54:16.721Z,84.13
2018-02-09T04:55:16.738Z,84.32
2018-02-09T04:56:16.497Z,84.89
2018-02-09T04:57:16.761Z,84.51
2018-02-09T04:58:16.533Z,84.42
2018-02-09T04:59:16.537Z,84.13
2018-02-09T05:00:16.800Z,84.04
2018-02-09T05:01:16.562Z,84.51
2018-02-09T05:02:16.574Z,84.42
2018-02-09T05:03:16.842Z,84.51
2018-02-09T05:04:16.651Z,83.56
2018-02-09T05:05:16.614Z,83.66
2018-02-09T05:06:16.646Z,84.61
2018-02-09T05:07:16.894Z,85.08
2018-02-09T05:08:16.908Z,84.23
2018-02-09T05:09:16.667Z,84.04
2018-02-09T05:10:16.730Z,84.89
2018-02-09T05:11:16.947Z,83.85
2018-02-09T05:12:16.958Z,83.56
2018-02-09T05:13:16.971Z,83.66
2018-02-09T05:14:16.982Z,84.46
2018-02-09T05:15:16.748Z,84.04
2018-02-09T05:16:17.010Z,84.23
2018-02-09T05:17:17.053Z,84.36
2018-02-09T05:18:17.038Z,83.56
2018-02-09T05:19:16.850Z,83.13
2018-02-09T05:20:17.067Z,82.9
2018-02-09T05:21:17.078Z,83.18
2018-02-09T05:22:16.838Z,83.28
2018-02-09T05:23:17.104Z,83
2018-02-09T05:24:16.867Z,83.75
2018-02-09T05:25:17.130Z,83.66
2018-02-09T05:26:17.156Z,83.37
2018-02-09T05:27:16.913Z,83.66
2018-02-09T05:28:17.168Z,83.13
2018-02-09T05:29:17.184Z,83.09
2018-02-09T05:30:16.944Z,83.18
2018-02-09T05:31:16.956Z,83.37
2018-02-09T05:32:17.222Z,83.75
2018-02-09T05:33:17.251Z,83.7
2018-02-09T05:34:17.016Z,83
2018-02-09T05:35:17.260Z,83.47
2018-02-09T05:36:17.027Z,83
2018-02-09T05:37:17.290Z,83.37
2018-02-09T05:38:17.049Z,83.28
2018-02-09T05:39:17.063Z,83.75
2018-02-09T05:40:17.326Z,84.32
2018-02-09T05:41:17.368Z,83.85
2018-02-09T05:42:17.353Z,83.56
2018-02-09T05:43:17.370Z,83.47
2018-02-09T05:44:17.381Z,83.56
2018-02-09T05:45:17.395Z,83.8
2018-02-09T05:46:17.408Z,83.42
2018-02-09T05:47:17.169Z,83.42
2018-02-09T05:48:17.183Z,83.56
2018-02-09T05:49:17.199Z,84.36
2018-02-09T05:50:17.212Z,83.47
2018-02-09T05:51:17.477Z,83.94
2018-02-09T05:52:17.489Z,84.17
2018-02-09T05:53:17.500Z,83.75
2018-02-09T05:54:17.514Z,83.56
2018-02-09T05:55:17.528Z,83.51
2018-02-09T05:56:17.546Z,83.09
2018-02-09T05:57:17.557Z,83.09
2018-02-09T05:58:17.571Z,83.18
2018-02-09T05:59:17.585Z,82.9
2018-02-09T06:00:17.592Z,83.18
2018-02-09T06:01:17.611Z,83
2018-02-09T06:02:17.367Z,83.66
2018-02-09T06:03:17.381Z,83.37
2018-02-09T06:04:17.648Z,83.37
2018-02-09T06:05:17.669Z,84.13
2018-02-09T06:06:17.672Z,83.47
2018-02-09T06:07:17.689Z,83.28
2018-02-09T06:08:17.756Z,83.66
2018-02-09T06:09:17.461Z,84.13
2018-02-09T06:10:17.473Z,84.32
2018-02-09T06:11:17.742Z,84.32
2018-02-09T06:12:17.502Z,83.75
2018-02-09T06:13:17.763Z,83.56
2018-02-09T06:14:17.777Z,83.56
2018-02-09T06:15:17.792Z,83.66
2018-02-09T06:16:17.552Z,83.94
2018-02-09T06:17:17.818Z,83.56
2018-02-09T06:18:17.578Z,83.09
2018-02-09T06:19:17.842Z,83.28
2018-02-09T06:20:17.861Z,83.94
2018-02-09T06:21:17.621Z,83.66
2018-02-09T06:22:17.882Z,83.28
2018-02-09T06:23:17.891Z,83.18
2018-02-09T06:24:17.954Z,83.28
2018-02-09T06:25:17.683Z,83.28
2018-02-09T06:26:17.970Z,83.66
2018-02-09T06:27:17.951Z,83.56
2018-02-09T06:28:17.968Z,84.32
2018-02-09T06:29:18.078Z,83.66
2018-02-09T06:30:17.736Z,83.85
2018-02-09T06:31:18.002Z,83.75
2018-02-09T06:32:18.015Z,84.23
2018-02-09T06:33:17.776Z,83.56
2018-02-09T06:34:18.055Z,83.47
2018-02-09T06:35:17.804Z,83.94
2018-02-09T06:36:18.068Z,84.13
2018-02-09T06:37:18.082Z,83.94
2018-02-09T06:38:17.898Z,84.32
2018-02-09T06:39:18.175Z,84.51
2018-02-09T06:40:18.117Z,84.8
2018-02-09T06:41:18.137Z,84.8
2018-02-09T06:42:18.144Z,84.89
2018-02-09T06:43:18.165Z,84.7
2018-02-09T06:44:18.175Z,84.8
2018-02-09T06:45:17.936Z,84.89
2018-02-09T06:46:17.949Z,84.8
2018-02-09T06:47:17.968Z,84.99
2018-02-09T06:48:18.228Z,84.8
2018-02-09T06:49:18.038Z,84.89
2018-02-09T06:50:18.251Z,84.89
2018-02-09T06:51:18.266Z,85.36
2018-02-09T06:52:18.034Z,85.27
2018-02-09T06:53:18.310Z,85.46
2018-02-09T06:54:18.056Z,85.08
2018-02-09T06:55:18.325Z,85.27
2018-02-09T06:56:18.334Z,84.8
2018-02-09T06:57:18.089Z,84.99
2018-02-09T06:58:18.353Z,83.94
2018-02-09T06:59:18.365Z,84.13
2018-02-09T07:00:18.382Z,84.04
2018-02-09T07:01:18.396Z,84.89
2018-02-09T07:02:18.414Z,84.61
2018-02-09T07:03:18.426Z,84.61
2018-02-09T07:04:18.490Z,83.47
2018-02-09T07:05:18.451Z,84.23
2018-02-09T07:06:18.218Z,84.23
2018-02-09T07:07:18.229Z,84.51
2018-02-09T07:08:18.493Z,84.42
2018-02-09T07:09:18.253Z,83.56
2018-02-09T07:10:18.266Z,84.32
2018-02-09T07:11:18.531Z,84.04
2018-02-09T07:12:18.545Z,84.42
2018-02-09T07:13:18.556Z,84.7
2018-02-09T07:14:18.569Z,84.23
2018-02-09T07:15:18.665Z,84.42
2018-02-09T07:16:18.597Z,84.61
2018-02-09T07:17:18.614Z,84.23
2018-02-09T07:18:18.625Z,84.32
2018-02-09T07:19:18.435Z,83.94
2018-02-09T07:20:18.658Z,83.56
2018-02-09T07:21:18.665Z,84.04
2018-02-09T07:22:18.426Z,84.32
2018-02-09T07:23:18.784Z,84.04
2018-02-09T07:24:18.710Z,84.61
2018-02-09T07:25:18.465Z,84.13
2018-02-09T07:26:18.731Z,83.47
2018-02-09T07:27:18.744Z,84.32
2018-02-09T07:28:18.758Z,84.13
2018-02-09T07:29:18.791Z,84.04
2018-02-09T07:30:18.779Z,85.08
2018-02-09T07:31:18.540Z,84.13
2018-02-09T07:32:18.553Z,84.61
2018-02-09T07:33:18.568Z,84.23
2018-02-09T07:34:18.634Z,84.42
2018-02-09T07:35:18.845Z,84.04
2018-02-09T07:36:18.863Z,84.13
2018-02-09T07:37:18.624Z,84.23
2018-02-09T07:38:18.636Z,84.61
2018-02-09T07:39:18.900Z,84.23
2018-02-09T07:40:18.914Z,83.75
2018-02-09T07:41:18.677Z,84.23
2018-02-09T07:42:18.939Z,83.66
2018-02-09T07:43:18.955Z,84.17
2018-02-09T07:44:18.966Z,84.13
2018-02-09T07:45:18.977Z,83.04
2018-02-09T07:46:18.741Z,83.09
2018-02-09T07:47:18.756Z,83.28
2018-02-09T07:48:18.767Z,83
2018-02-09T07:49:19.062Z,83.18
2018-02-09T07:50:18.845Z,83.47
2018-02-09T07:51:18.808Z,83.47
2018-02-09T07:52:18.820Z,84.04
2018-02-09T07:53:19.093Z,83.75
2018-02-09T07:54:18.846Z,83.09
2018-02-09T07:55:19.112Z,83.75
2018-02-09T07:56:19.132Z,83.37
2018-02-09T07:57:19.144Z,83.75
2018-02-09T07:58:19.162Z,83.37
2018-02-09T07:59:19.168Z,83.56
2018-02-09T08:00:19.179Z,83.85
2018-02-09T08:01:19.192Z,83.47
2018-02-09T08:02:18.954Z,84.13
2018-02-09T08:03:18.968Z,84.7
2018-02-09T08:04:19.233Z,83.56
2018-02-09T08:05:18.994Z,83.18
2018-02-09T08:06:19.006Z,83.28
2018-02-09T08:07:19.271Z,83.09
2018-02-09T08:08:19.034Z,83
2018-02-09T08:09:19.298Z,83.37
2018-02-09T08:10:19.059Z,83.09
2018-02-09T08:11:19.072Z,83
2018-02-09T08:12:19.092Z,83
2018-02-09T08:13:19.097Z,83.28
2018-02-09T08:14:19.371Z,82.81
2018-02-09T08:15:19.176Z,82.85
2018-02-09T08:16:19.139Z,82.33
2018-02-09T08:17:19.408Z,82.52
2018-02-09T08:18:19.165Z,82.52
2018-02-09T08:19:19.180Z,82.24
2018-02-09T08:20:19.209Z,82.71
2018-02-09T08:21:19.504Z,82.66
2018-02-09T08:22:19.223Z,82.52
2018-02-09T08:23:19.232Z,82.24
2018-02-09T08:24:19.591Z,82.47
2018-02-09T08:25:19.509Z,82.37
2018-02-09T08:26:19.526Z,82.18
2018-02-09T08:27:19.537Z,82.18
2018-02-09T08:28:19.300Z,81.99
2018-02-09T08:29:19.581Z,81.1
2018-02-09T08:30:19.626Z,82.09
2018-02-09T08:31:19.588Z,81.33
2018-02-09T08:32:19.603Z,81.99
2018-02-09T08:33:19.365Z,82.18
2018-02-09T08:34:19.378Z,81.99
2018-02-09T08:35:19.390Z,82.66
2018-02-09T08:36:19.664Z,82.47
2018-02-09T08:37:19.420Z,81.9
2018-02-09T08:38:19.431Z,81.71
2018-02-09T08:39:19.698Z,82.75
2018-02-09T08:40:19.709Z,81.99
2018-02-09T08:41:19.473Z,82.18
2018-02-09T08:42:19.741Z,82.09
2018-02-09T08:43:19.501Z,82.28
2018-02-09T08:44:19.511Z,82.09
2018-02-09T08:45:19.833Z,82.09
2018-02-09T08:46:19.542Z,82.18
2018-02-09T08:47:19.555Z,82.18
2018-02-09T08:48:19.830Z,81.52
2018-02-09T08:49:19.836Z,81.52
2018-02-09T08:50:19.845Z,81.9
2018-02-09T08:51:19.859Z,82.14
2018-02-09T08:52:19.623Z,81.95
2018-02-09T08:53:19.887Z,82.71
2018-02-09T08:54:19.651Z,82.9
2018-02-09T08:55:19.915Z,83.18
2018-02-09T08:56:19.930Z,83
2018-02-09T08:57:19.690Z,83.28
2018-02-09T08:58:19.703Z,83.56
2018-02-09T08:59:19.765Z,83.37
2018-02-09T09:00:20.035Z,83.09
2018-02-09T09:01:19.995Z,83.42
2018-02-09T09:02:20.012Z,83.23
2018-02-09T09:03:20.021Z,83.13
2018-02-09T09:04:19.785Z,82.75
2018-02-09T09:05:20.068Z,82.18
2018-02-09T09:06:20.062Z,81.99
2018-02-09T09:07:20.074Z,81.9
2018-02-09T09:08:20.090Z,81.24
2018-02-09T09:09:19.851Z,81.62
2018-02-09T09:10:20.122Z,81.24
2018-02-09T09:11:20.131Z,81.33
2018-02-09T09:12:19.895Z,81.14
2018-02-09T09:13:19.905Z,82.37
2018-02-09T09:14:19.920Z,83.13
2018-02-09T09:15:20.187Z,82.94
2018-02-09T09:16:19.994Z,81.9
2018-02-09T09:17:19.961Z,81.33
2018-02-09T09:18:19.975Z,80
2018-02-09T09:19:19.985Z,80.38
2018-02-09T09:20:20.251Z,80.43
2018-02-09T09:21:20.015Z,79.82
2018-02-09T09:22:20.029Z,78.3
2018-02-09T09:23:20.040Z,79.82
2018-02-09T09:24:20.316Z,80.33
2018-02-09T09:25:20.321Z,79.66
2018-02-09T09:26:20.195Z,78.81
2018-02-09T09:27:20.351Z,77.64
2018-02-09T09:28:20.111Z,77.35
2018-02-09T09:29:20.374Z,77.73
2018-02-09T09:30:20.139Z,78.05
2018-02-09T09:31:20.452Z,76.03
2018-02-09T09:32:20.419Z,76.12
2018-02-09T09:33:20.430Z,76.59
2018-02-09T09:34:20.198Z,76.87
2018-02-09T09:35:20.461Z,76.68
2018-02-09T09:36:20.478Z,75.68
2018-02-09T09:37:20.493Z,74.88
2018-02-09T09:38:20.510Z,75.07
2018-02-09T09:39:20.268Z,75.84
2018-02-09T09:40:20.531Z,76.4
2018-02-09T09:41:20.294Z,76.12
2018-02-09T09:42:20.561Z,75.74
2018-02-09T09:43:20.573Z,74.98
2018-02-09T09:44:20.338Z,75.55
2018-02-09T09:45:20.604Z,75.17
2018-02-09T09:46:20.669Z,74.51
2018-02-09T09:47:20.629Z,74.32
2018-02-09T09:48:20.646Z,74.32
2018-02-09T09:49:20.409Z,75.07
2018-02-09T09:50:20.673Z,75.26
2018-02-09T09:51:20.688Z,76.03
2018-02-09T09:52:20.703Z,75.84
2018-02-09T09:53:20.742Z,75.93
2018-02-09T09:54:20.737Z,75.93
2018-02-09T09:55:20.492Z,75.26
2018-02-09T09:56:20.760Z,75.45
2018-02-09T09:57:20.776Z,75.17
2018-02-09T09:58:20.793Z,74.41
2018-02-09T09:59:20.554Z,74.51
2018-02-09T10:00:20.824Z,74.22
2018-02-09T10:01:20.633Z,74.51
2018-02-09T10:02:20.845Z,75.45
2018-02-09T10:03:20.606Z,75.93
2018-02-09T10:04:20.874Z,75.93
2018-02-09T10:05:20.636Z,75.64
2018-02-09T10:06:20.650Z,75.36
2018-02-09T10:07:20.664Z,75.36
2018-02-09T10:08:20.683Z,75.64
2018-02-09T10:09:20.954Z,74.41
2018-02-09T10:10:20.970Z,74.32
2018-02-09T10:11:20.724Z,74.98
2018-02-09T10:12:20.989Z,75.64
2018-02-09T10:13:20.753Z,75.64
2018-02-09T10:14:20.764Z,74.79
2018-02-09T10:15:20.778Z,74.32
2018-02-09T10:16:21.202Z,73.65
2018-02-09T10:17:20.807Z,74.51
2018-02-09T10:18:20.822Z,74.45
2018-02-09T10:19:21.089Z,72.8
2018-02-09T10:20:21.102Z,72.33
2018-02-09T10:21:21.122Z,72.99
2018-02-09T10:22:21.132Z,73.08
2018-02-09T10:23:21.147Z,72.89
2018-02-09T10:24:20.963Z,72.45
2018-02-09T10:25:21.173Z,72.45
2018-02-09T10:26:20.936Z,73.69
2018-02-09T10:27:21.197Z,72.84
2018-02-09T10:28:20.965Z,72.17
2018-02-09T10:29:20.982Z,73.22
2018-02-09T10:30:21.244Z,72.74
2018-02-09T10:31:21.057Z,72.55
2018-02-09T10:32:21.279Z,72.84
2018-02-09T10:33:21.038Z,74.07
2018-02-09T10:34:21.055Z,73.69
2018-02-09T10:35:21.067Z,72.93
2018-02-09T10:36:21.085Z,72.08
2018-02-09T10:37:21.346Z,71.89
2018-02-09T10:38:21.109Z,72.74
2018-02-09T10:39:21.389Z,72.64
2018-02-09T10:40:21.392Z,71.98
2018-02-09T10:41:21.406Z,72.17
2018-02-09T10:42:21.169Z,71.7
2018-02-09T10:43:21.432Z,72.45
2018-02-09T10:44:21.195Z,72.36
2018-02-09T10:45:21.464Z,72.45
2018-02-09T10:46:21.530Z,72.64
2018-02-09T10:47:21.248Z,71.89
2018-02-09T10:48:21.509Z,72.27
2018-02-09T10:49:21.528Z,73.03
2018-02-09T10:50:21.537Z,72.74
2018-02-09T10:51:21.324Z,71.89
2018-02-09T10:52:21.338Z,71.7
2018-02-09T10:53:21.582Z,71.89
2018-02-09T10:54:21.605Z,71.13
2018-02-09T10:55:21.609Z,71.98
2018-02-09T10:56:21.625Z,71.7
2018-02-09T10:57:21.390Z,72.64
2018-02-09T10:58:21.410Z,73.03
2018-02-09T10:59:21.437Z,73.03
2018-02-09T11:00:21.436Z,72.93
2018-02-09T11:01:21.757Z,72.64
2018-02-09T11:02:21.722Z,72.45
2018-02-09T11:03:21.727Z,73.03
2018-02-09T11:04:21.746Z,74.07
2018-02-09T11:05:21.762Z,73.12
2018-02-09T11:06:21.524Z,72.55
2018-02-09T11:07:21.788Z,73.12
2018-02-09T11:08:21.808Z,73.22
2018-02-09T11:09:21.566Z,72.45
2018-02-09T11:10:21.581Z,72.45
2018-02-09T11:11:21.596Z,73.12
2018-02-09T11:12:21.610Z,73.31
2018-02-09T11:13:21.878Z,71.89
2018-02-09T11:14:21.639Z,71.22
2018-02-09T11:15:21.656Z,71.7
2018-02-09T11:16:21.668Z,71.51
2018-02-09T11:17:21.713Z,72.64
2018-02-09T11:18:21.747Z,73.31
2018-02-09T11:19:21.964Z,71.6
2018-02-09T11:20:21.741Z,71.89
2018-02-09T11:21:21.990Z,71.8
2018-02-09T11:22:21.756Z,71.51
2018-02-09T11:23:22.027Z,71.7
2018-02-09T11:24:22.036Z,73.03
2018-02-09T11:25:21.799Z,72.55
2018-02-09T11:26:21.822Z,72.55
2018-02-09T11:27:22.077Z,71.89
2018-02-09T11:28:21.856Z,71.41
2018-02-09T11:29:21.858Z,70.47
2018-02-09T11:30:22.122Z,71.32
2018-02-09T11:31:22.138Z,71.22
2018-02-09T11:32:22.159Z,71.32
2018-02-09T11:33:22.167Z,71.7
2018-02-09T11:34:22.181Z,72.52
2018-02-09T11:35:21.944Z,72.61
2018-02-09T11:36:21.961Z,72.52
2018-02-09T11:37:22.227Z,73.27
2018-02-09T11:38:22.240Z,73.69
2018-02-09T11:39:22.252Z,73.79
2018-02-09T11:40:22.017Z,73.12
2018-02-09T11:41:22.284Z,71.22
2018-02-09T11:42:22.047Z,71.03
2018-02-09T11:43:22.314Z,71.6
2018-02-09T11:44:22.329Z,71.51
2018-02-09T11:45:22.092Z,71.51
2018-02-09T11:46:22.361Z,71.6
2018-02-09T11:47:22.371Z,71.8
2018-02-09T11:48:22.387Z,70.47
2018-02-09T11:49:22.463Z,70.65
2018-02-09T11:50:22.414Z,70.37
2018-02-09T11:51:22.428Z,70.47
2018-02-09T11:52:22.443Z,69.52
2018-02-09T11:53:22.458Z,69.9
2018-02-09T11:54:22.474Z,69.99
2018-02-09T11:55:22.558Z,70.65
2018-02-09T11:56:22.502Z,69.9
2018-02-09T11:57:22.518Z,69.13
2018-02-09T11:58:22.536Z,69.52
2018-02-09T11:59:22.550Z,69.8
2018-02-09T12:00:22.559Z,70.09
2018-02-09T12:01:22.324Z,70.18
2018-02-09T12:02:22.589Z,69.99
2018-02-09T12:03:22.606Z,69.55
2018-02-09T12:04:22.622Z,68.7
2018-02-09T12:05:22.385Z,69.55
2018-02-09T12:06:22.700Z,68.51
2018-02-09T12:07:22.413Z,68.04
2018-02-09T12:08:22.678Z,68.6
2018-02-09T12:09:22.696Z,67.27
2018-02-09T12:10:22.715Z,68.29
2018-02-09T12:11:22.472Z,68.32
2018-02-09T12:12:22.740Z,68.04
2018-02-09T12:13:22.505Z,67.94
2018-02-09T12:14:22.518Z,68.13
2018-02-09T12:15:22.535Z,69.17
2018-02-09T12:16:22.546Z,69.84
2018-02-09T12:17:22.814Z,69.93
2018-02-09T12:18:22.832Z,70.12
2018-02-09T12:19:22.592Z,69.65
2018-02-09T12:20:22.857Z,69.46
2018-02-09T12:21:22.932Z,68.64
2018-02-09T12:22:22.636Z,67.59
2018-02-09T12:23:22.904Z,69.21
2018-02-09T12:24:22.665Z,68.44
2018-02-09T12:25:22.935Z,66.46
2018-02-09T12:26:22.947Z,66.83
2018-02-09T12:27:22.962Z,67.12
2018-02-09T12:28:22.725Z,66.55
2018-02-09T12:29:22.740Z,66.08
2018-02-09T12:30:22.754Z,65.66
2018-02-09T12:31:22.772Z,66.04
2018-02-09T12:32:22.791Z,66.8
2018-02-09T12:33:22.798Z,67.08
2018-02-09T12:34:22.815Z,67.65
2018-02-09T12:35:22.837Z,66.8
2018-02-09T12:36:23.148Z,67.08
2018-02-09T12:37:22.863Z,67.56
2018-02-09T12:38:23.128Z,67.85
2018-02-09T12:39:22.891Z,68.04
2018-02-09T12:40:22.932Z,67.18
2018-02-09T12:41:22.923Z,67.75
2018-02-09T12:42:23.193Z,67.27
2018-02-09T12:43:22.954Z,67.46
2018-02-09T12:44:23.220Z,67.18
2018-02-09T12:45:22.985Z,67.56
2018-02-09T12:46:23.252Z,68.51
2018-02-09T12:47:23.271Z,67.46
2018-02-09T12:48:23.298Z,66.04
2018-02-09T12:49:23.303Z,67.08
2018-02-09T12:50:23.060Z,67.27
2018-02-09T12:51:23.129Z,68.23
2018-02-09T12:52:23.091Z,68.41
2018-02-09T12:53:23.107Z,69.36
2018-02-09T12:54:23.384Z,67.46
2018-02-09T12:55:23.138Z,67.08
2018-02-09T12:56:23.404Z,67.75
2018-02-09T12:57:23.423Z,66.99
2018-02-09T12:58:23.433Z,68.41
2018-02-09T12:59:23.199Z,67.37
2018-02-09T13:00:23.466Z,68.89
2018-02-09T13:01:23.488Z,68.7
2018-02-09T13:02:23.245Z,69.08
2018-02-09T13:03:23.257Z,68.23
2018-02-09T13:04:23.525Z,68.23
2018-02-09T13:05:23.547Z,67.85
2018-02-09T13:06:23.609Z,68.32
2018-02-09T13:07:23.571Z,68.41
2018-02-09T13:08:23.633Z,68.41
2018-02-09T13:09:23.349Z,68.51
2018-02-09T13:10:23.616Z,69.36
2018-02-09T13:11:23.632Z,68.98
2018-02-09T13:12:23.398Z,68.89
2018-02-09T13:13:23.408Z,69.17
2018-02-09T13:14:23.426Z,69.46
2018-02-09T13:15:23.694Z,68.89
2018-02-09T13:16:23.462Z,69.84
2018-02-09T13:17:23.730Z,68.79
2018-02-09T13:18:23.739Z,67.75
2018-02-09T13:19:23.772Z,67.65
2018-02-09T13:20:23.518Z,68.79
2018-02-09T13:21:23.834Z,69.9
2018-02-09T13:22:23.799Z,69.8
2018-02-09T13:23:23.563Z,69.8
2018-02-09T13:24:23.830Z,69.42
2018-02-09T13:25:23.845Z,70.09
2018-02-09T13:26:23.610Z,70.21
2018-02-09T13:27:23.620Z,70.56